This is the latest recevied weather packets stored in our database for station/object SQ7ACP-3. If no packets are shown the sender has not sent any weather packets the latest 10 day(s).
| Time | Temp. | Humidity | Pressure | Rain* | Wind** | Luminosity | Snow |
|---|---|---|---|---|---|---|---|
| 1777958215 | 14.44° C | 61% | 1009.9 hPa | 0 mm | - | - | - |
| 1777957603 | 13.89° C | 62% | 1009.9 hPa | 0 mm | - | - | - |
| 1777956995 | 13.33° C | 64% | 1009.9 hPa | 0 mm | - | - | - |
| 1777956390 | 12.78° C | 66% | 1009.8 hPa | 0 mm | - | - | - |
| 1777955778 | 12.78° C | 72% | 1009.7 hPa | 0 mm | - | - | - |
| 1777955178 | 12.78° C | 71% | 1009.7 hPa | 0 mm | - | - | - |
| 1777954578 | 12.78° C | 70% | 1009.8 hPa | 0 mm | - | - | - |
| 1777953965 | 12.22° C | 72% | 1009.9 hPa | 0 mm | - | - | - |
| 1777953353 | 12.22° C | 73% | 1009.9 hPa | 0 mm | - | - | - |
| 1777952752 | 12.22° C | 75% | 1010 hPa | 0 mm | - | - | - |
| 1777952140 | 11.67° C | 75% | 1009.9 hPa | 0 mm | - | - | - |
| 1777951532 | 13.33° C | 73% | 1010.3 hPa | 0 mm | - | - | - |
| 1777943628 | 13.33° C | 73% | 1010.3 hPa | 0 mm | - | - | - |
| 1777943015 | 13.89° C | 71% | 1010.3 hPa | 0 mm | - | - | - |
| 1777942403 | 13.89° C | 70% | 1010.3 hPa | 0 mm | - | - | - |
| 1777941802 | 13.89° C | 69% | 1010.4 hPa | 0 mm | - | - | - |
| 1777941190 | 14.44° C | 68% | 1010.5 hPa | 0 mm | - | - | - |
| 1777940590 | 14.44° C | 67% | 1010.5 hPa | 0 mm | - | - | - |
| 1777939990 | 14.44° C | 67% | 1010.6 hPa | 0 mm | - | - | - |
| 1777939378 | 14.44° C | 66% | 1010.6 hPa | 0 mm | - | - | - |
| 1777938777 | 14.44° C | 66% | 1010.7 hPa | 0 mm | - | - | - |
| 1777938165 | 14.44° C | 66% | 1010.7 hPa | 0 mm | - | - | - |
| 1777937565 | 14.44° C | 66% | 1010.8 hPa | 0 mm | - | - | - |
| 1777936952 | 14.44° C | 66% | 1010.9 hPa | 0 mm | - | - | - |
| 1777936354 | 14.44° C | 65% | 1010.9 hPa | 0 mm | - | - | - |
* Rain latest hour (hover to see other rain measurements)
** Current wind speed in m/s (hover to see current wind gust speed)